Terminal Aerodrome Forecast
Issued by NWS Milwaukee/Sullivan, WI

Home | Current Version | Previous Version | Text Only | Print | Product List | Glossary On
Versions: 1 2 3 4 5 6 7 8 9 10 11 12 13 14 15 16 17 18 19 20 21 22 23 24 25 26 27 28 29 30 31 32 33 34 35 36 37 38 39 40 41 42 43 44 45 46 47 48 49 50
000
FTUS43 KMKX 070520
TAFMSN
TAF
KMSN 070520Z 0706/0806 14009KT 4SM HZ FEW025 SCT110
     FM070900 16007KT 3SM HZ FEW020 SCT110 WS015/20037KT
     FM071500 18010G18KT P6SM SCT110
     FM071800 19015G23KT P6SM SCT050
     FM072300 19012G20KT P6SM SCT050
     FM080200 19011KT P6SM BKN040=

USA.gov is the U.S. government's official web portal to all federal, state and local government web resources and services.